Time,TemperatureF,DewpointF,PressureIn,WindDirection,WindDirectionDegrees,WindSpeedMPH,WindSpeedGustMPH,Humidity,HourlyPrecipIn,Conditions,Clouds,dailyrainin,SoftwareType,DateUTC
2013-08-30 00:01:00,76.1,73.7,29.95,NNE,27,0.0,0.0,92,0.00,,,0.00,VWS V13.01,2013-08-30 05:01:00,
2013-08-30 00:06:00,76.0,73.5,29.95,NNE,27,0.0,0.0,92,0.00,,,0.00,VWS V13.01,2013-08-30 05:06:00,
2013-08-30 00:10:00,75.8,73.6,29.95,NNE,27,0.0,0.0,93,0.00,,,0.00,VWS V13.01,2013-08-30 05:10:00,
2013-08-30 00:15:00,75.8,73.6,29.95,NNE,27,0.0,0.0,93,0.00,,,0.00,VWS V13.01,2013-08-30 05:15:00,
2013-08-30 00:20:00,75.6,73.4,29.95,NNE,27,0.0,0.0,93,0.00,,,0.00,VWS V13.01,2013-08-30 05:20:00,
2013-08-30 00:25:00,75.6,74.1,29.95,NNE,27,0.0,0.0,95,0.00,,,0.00,VWS V13.01,2013-08-30 05:25:00,
2013-08-30 00:30:00,75.4,73.6,29.95,NNE,27,0.0,0.0,94,0.00,,,0.00,VWS V13.01,2013-08-30 05:30:00,
2013-08-30 00:35:00,75.2,73.4,29.95,NNE,27,0.0,0.0,94,0.00,,,0.00,VWS V13.01,2013-08-30 05:35:00,
2013-08-30 00:40:00,75.1,73.5,29.95,NNE,27,0.0,0.0,95,0.00,,,0.00,VWS V13.01,2013-08-30 05:40:00,
2013-08-30 00:45:00,74.9,73.4,29.95,NNE,27,0.0,0.0,95,0.00,,,0.00,VWS V13.01,2013-08-30 05:45:00,
2013-08-30 00:50:00,74.9,73.4,29.95,NNE,27,0.0,0.0,95,0.00,,,0.00,VWS V13.01,2013-08-30 05:50:00,
2013-08-30 00:55:00,74.9,73.4,29.95,NNE,27,0.0,0.0,95,0.00,,,0.00,VWS V13.01,2013-08-30 05:55:00,
2013-08-30 01:00:00,74.9,74.0,29.95,NNE,27,0.0,0.0,97,0.00,,,0.00,VWS V13.01,2013-08-30 06:00:00,
2013-08-30 01:05:00,74.9,74.0,29.95,NNE,27,0.0,0.0,97,0.00,,,0.00,VWS V13.01,2013-08-30 06:05:00,
2013-08-30 01:10:00,74.9,74.0,29.95,NNE,27,0.0,0.0,97,0.00,,,0.00,VWS V13.01,2013-08-30 06:10:00,
2013-08-30 01:15:00,74.7,73.8,29.95,NNE,27,0.0,0.0,97,0.00,,,0.00,VWS V13.01,2013-08-30 06:15:00,
2013-08-30 01:20:00,74.7,73.8,29.95,NNE,27,0.0,0.0,97,0.00,,,0.00,VWS V13.01,2013-08-30 06:20:00,
2013-08-30 01:25:00,74.5,73.6,29.95,NNE,27,0.0,0.0,97,0.00,,,0.00,VWS V13.01,2013-08-30 06:25:00,
2013-08-30 01:30:00,74.3,73.7,29.95,NNE,27,0.0,0.0,98,0.00,,,0.00,VWS V13.01,2013-08-30 06:30:00,
2013-08-30 01:35:00,74.3,74.3,29.95,NNE,27,0.0,0.0,100,0.00,,,0.00,VWS V13.01,2013-08-30 06:35:00,
2013-08-30 01:40:00,74.2,74.2,29.95,NNE,27,0.0,0.0,100,0.00,,,0.00,VWS V13.01,2013-08-30 06:40:00,
2013-08-30 01:45:00,74.0,74.0,29.95,NNE,27,0.0,0.0,100,0.00,,,0.00,VWS V13.01,2013-08-30 06:45:00,
2013-08-30 01:50:00,73.8,73.8,29.95,NNE,27,0.0,0.0,100,0.00,,,0.00,VWS V13.01,2013-08-30 06:50:00,
2013-08-30 01:55:00,73.6,73.6,29.95,NNE,27,0.0,0.0,100,0.00,,,0.00,VWS V13.01,2013-08-30 06:55:00,
2013-08-30 02:00:00,73.6,73.6,29.95,NNE,27,0.0,0.0,100,0.00,,,0.00,VWS V13.01,2013-08-30 07:00:00,
2013-08-30 02:05:00,73.6,73.6,29.95,NNE,27,0.0,0.0,100,0.00,,,0.00,VWS V13.01,2013-08-30 07:05:00,
2013-08-30 02:10:00,73.6,73.6,29.95,NNE,27,0.0,0.0,100,0.00,,,0.00,VWS V13.01,2013-08-30 07:10:00,
2013-08-30 02:15:00,73.6,73.6,29.95,NNE,27,0.0,0.0,100,0.00,,,0.00,VWS V13.01,2013-08-30 07:15:00,
2013-08-30 02:20:00,73.6,73.6,29.95,NNE,27,0.0,0.0,100,0.00,,,0.00,VWS V13.01,2013-08-30 07:20:00,
2013-08-30 02:25:00,73.4,73.4,29.95,NNE,27,0.0,0.0,100,0.00,,,0.00,VWS V13.01,2013-08-30 07:25:00,
2013-08-30 02:30:00,73.4,73.4,29.95,NNE,27,0.0,0.0,100,0.00,,,0.00,VWS V13.01,2013-08-30 07:30:00,
2013-08-30 02:35:00,73.4,73.4,29.95,NNE,27,0.0,0.0,100,0.00,,,0.00,VWS V13.01,2013-08-30 07:35:00,
2013-08-30 02:40:00,73.3,73.3,29.95,NNE,27,0.0,0.0,100,0.00,,,0.00,VWS V13.01,2013-08-30 07:40:00,
2013-08-30 02:45:00,73.3,73.3,29.95,NNE,27,0.0,0.0,100,0.00,,,0.00,VWS V13.01,2013-08-30 07:45:00,
2013-08-30 02:50:00,73.1,73.1,29.95,NNE,27,0.0,0.0,100,0.00,,,0.00,VWS V13.01,2013-08-30 07:50:00,
2013-08-30 02:55:00,72.9,72.9,29.95,NNE,27,0.0,0.0,100,0.00,,,0.00,VWS V13.01,2013-08-30 07:55:00,
2013-08-30 03:00:00,72.7,72.7,29.95,NNE,27,0.0,0.0,100,0.00,,,0.00,VWS V13.01,2013-08-30 08:00:00,
2013-08-30 03:05:00,72.7,72.7,29.95,NNE,27,0.0,0.0,100,0.00,,,0.00,VWS V13.01,2013-08-30 08:05:00,
2013-08-30 03:10:00,72.5,72.6,29.95,NNE,27,0.0,0.0,100,0.00,,,0.00,VWS V13.01,2013-08-30 08:10:00,
2013-08-30 03:15:00,72.5,72.6,29.95,NNE,27,0.0,0.0,100,0.00,,,0.00,VWS V13.01,2013-08-30 08:15:00,
2013-08-30 03:20:00,72.4,72.4,29.95,NNE,27,0.0,0.0,100,0.00,,,0.00,VWS V13.01,2013-08-30 08:20:00,
2013-08-30 03:25:00,72.4,72.4,29.95,NNE,27,0.0,0.0,100,0.00,,,0.00,VWS V13.01,2013-08-30 08:25:00,
2013-08-30 03:30:00,72.4,72.4,29.95,NNE,27,0.0,0.0,100,0.00,,,0.00,VWS V13.01,2013-08-30 08:30:00,
2013-08-30 03:35:00,72.2,72.2,29.95,NNE,27,0.0,0.0,100,0.00,,,0.00,VWS V13.01,2013-08-30 08:35:00,
2013-08-30 03:40:00,72.2,72.2,29.95,NNE,27,0.0,0.0,100,0.00,,,0.00,VWS V13.01,2013-08-30 08:40:00,
2013-08-30 03:45:00,72.2,72.2,29.95,NNE,27,0.0,0.0,100,0.00,,,0.00,VWS V13.01,2013-08-30 08:45:00,
2013-08-30 03:50:00,72.0,72.0,29.95,NNE,27,0.0,0.0,100,0.00,,,0.00,VWS V13.01,2013-08-30 08:50:00,
2013-08-30 03:55:00,72.0,72.0,29.95,NNE,27,0.0,0.0,100,0.00,,,0.00,VWS V13.01,2013-08-30 08:55:00,
2013-08-30 04:00:00,71.8,71.8,29.95,NNE,27,0.0,0.0,100,0.00,,,0.00,VWS V13.01,2013-08-30 09:00:00,
2013-08-30 04:05:00,71.6,71.6,29.95,NNE,27,0.0,0.0,100,0.00,,,0.00,VWS V13.01,2013-08-30 09:05:00,
2013-08-30 04:10:00,71.6,71.6,29.95,NNE,27,0.0,0.0,100,0.00,,,0.00,VWS V13.01,2013-08-30 09:10:00,
2013-08-30 04:15:00,71.6,71.6,29.92,NNE,27,0.0,0.0,100,0.00,,,0.00,VWS V13.01,2013-08-30 09:15:00,
2013-08-30 04:20:00,71.6,71.6,29.92,NNE,27,0.0,0.0,100,0.00,,,0.00,VWS V13.01,2013-08-30 09:20:00,
2013-08-30 04:25:00,71.6,71.6,29.92,NNE,27,0.0,0.0,100,0.00,,,0.00,VWS V13.01,2013-08-30 09:25:00,
2013-08-30 04:30:00,71.6,71.6,29.95,NNE,27,0.0,0.0,100,0.00,,,0.00,VWS V13.01,2013-08-30 09:30:00,
2013-08-30 04:35:00,71.6,71.6,29.95,NNE,27,0.0,0.0,100,0.00,,,0.00,VWS V13.01,2013-08-30 09:35:00,
2013-08-30 04:40:00,71.6,71.6,29.95,NNE,27,0.0,0.0,100,0.00,,,0.00,VWS V13.01,2013-08-30 09:40:00,
2013-08-30 04:45:00,71.8,71.8,29.95,NNE,27,0.0,0.0,100,0.00,,,0.00,VWS V13.01,2013-08-30 09:45:00,
2013-08-30 04:50:00,71.8,71.8,29.95,NNE,27,0.0,0.0,100,0.00,,,0.00,VWS V13.01,2013-08-30 09:50:00,
2013-08-30 04:55:00,71.6,71.6,29.95,NNE,27,0.0,0.0,100,0.00,,,0.00,VWS V13.01,2013-08-30 09:55:00,
2013-08-30 05:00:00,71.6,71.6,29.95,NNE,27,0.0,0.0,100,0.00,,,0.00,VWS V13.01,2013-08-30 10:00:00,
2013-08-30 05:05:00,71.6,71.6,29.95,NNE,27,0.0,0.0,100,0.00,,,0.00,VWS V13.01,2013-08-30 10:05:00,
2013-08-30 05:10:00,71.5,71.5,29.95,NNE,27,0.0,0.0,100,0.00,,,0.00,VWS V13.01,2013-08-30 10:10:00,
2013-08-30 05:15:00,71.5,71.5,29.95,NNE,27,0.0,0.0,100,0.00,,,0.00,VWS V13.01,2013-08-30 10:15:00,
2013-08-30 05:20:00,71.3,71.3,29.95,NNE,27,0.0,0.0,100,0.00,,,0.00,VWS V13.01,2013-08-30 10:20:00,
2013-08-30 05:25:00,71.3,71.3,29.95,NNE,27,0.0,0.0,100,0.00,,,0.00,VWS V13.01,2013-08-30 10:25:00,
2013-08-30 05:30:00,71.1,71.1,29.95,NNE,27,0.0,0.0,100,0.00,,,0.00,VWS V13.01,2013-08-30 10:30:00,
2013-08-30 05:35:00,71.1,71.1,29.95,NNE,27,0.0,0.0,100,0.00,,,0.00,VWS V13.01,2013-08-30 10:35:00,
2013-08-30 05:40:00,70.9,70.9,29.95,NNE,27,0.0,0.0,100,0.00,,,0.00,VWS V13.01,2013-08-30 10:40:00,
2013-08-30 05:44:00,70.9,70.9,29.95,NNE,27,0.0,0.0,100,0.00,,,0.00,VWS V13.01,2013-08-30 10:44:00,
2013-08-30 05:49:00,70.9,70.9,29.95,NNE,27,0.0,0.0,100,0.00,,,0.00,VWS V13.01,2013-08-30 10:49:00,
2013-08-30 05:54:00,70.9,70.9,29.95,NNE,27,0.0,0.0,100,0.00,,,0.00,VWS V13.01,2013-08-30 10:54:00,
2013-08-30 05:59:00,70.9,70.9,29.95,NNE,27,0.0,0.0,100,0.00,,,0.00,VWS V13.01,2013-08-30 10:59:00,
2013-08-30 06:04:00,70.9,70.9,29.95,NNE,27,0.0,0.0,100,0.00,,,0.00,VWS V13.01,2013-08-30 11:04:00,
2013-08-30 06:09:00,70.9,70.9,29.95,NNE,27,0.0,0.0,100,0.00,,,0.00,VWS V13.01,2013-08-30 11:09:00,
2013-08-30 06:14:00,70.9,70.9,29.95,NNE,27,0.0,0.0,100,0.00,,,0.00,VWS V13.01,2013-08-30 11:14:00,
2013-08-30 06:19:00,70.7,70.7,29.95,NNE,27,0.0,0.0,100,0.00,,,0.00,VWS V13.01,2013-08-30 11:19:00,
2013-08-30 06:24:00,70.7,70.7,29.95,NNE,27,0.0,0.0,100,0.00,,,0.00,VWS V13.01,2013-08-30 11:24:00,
2013-08-30 06:29:00,70.7,70.7,29.95,NNE,27,0.0,0.0,100,0.00,,,0.00,VWS V13.01,2013-08-30 11:29:00,
2013-08-30 06:34:00,70.7,70.7,29.95,NNE,27,0.0,0.0,100,0.00,,,0.00,VWS V13.01,2013-08-30 11:34:00,
2013-08-30 06:39:00,70.7,70.7,29.95,NNE,27,0.0,0.0,100,0.00,,,0.00,VWS V13.01,2013-08-30 11:39:00,
2013-08-30 06:44:00,70.7,70.7,29.98,NNE,27,0.0,0.0,100,0.00,,,0.00,VWS V13.01,2013-08-30 11:44:00,
2013-08-30 06:49:00,70.6,70.6,29.98,NNE,27,0.0,0.0,100,0.00,,,0.00,VWS V13.01,2013-08-30 11:49:00,
2013-08-30 06:54:00,70.6,70.6,29.98,NNE,27,0.0,0.0,100,0.00,,,0.00,VWS V13.01,2013-08-30 11:54:00,
2013-08-30 06:59:00,70.6,70.6,29.98,NNE,27,0.0,0.0,100,0.00,,,0.00,VWS V13.01,2013-08-30 11:59:00,
2013-08-30 07:04:00,70.6,70.6,29.98,NNE,27,0.0,0.0,100,0.00,,,0.00,VWS V13.01,2013-08-30 12:04:00,
2013-08-30 07:09:00,70.6,70.6,29.98,NNE,27,0.0,0.0,100,0.00,,,0.00,VWS V13.01,2013-08-30 12:09:00,
2013-08-30 07:14:00,70.6,70.6,29.98,NNE,27,0.0,0.0,100,0.00,,,0.00,VWS V13.01,2013-08-30 12:14:00,
2013-08-30 07:19:00,70.6,70.6,29.98,NNE,27,0.0,0.0,100,0.00,,,0.00,VWS V13.01,2013-08-30 12:19:00,
2013-08-30 07:24:00,70.7,70.7,29.98,NNE,27,0.0,0.0,100,0.00,,,0.00,VWS V13.01,2013-08-30 12:24:00,
2013-08-30 07:29:00,70.7,70.7,29.98,NNE,27,0.0,0.0,100,0.00,,,0.00,VWS V13.01,2013-08-30 12:29:00,
2013-08-30 07:34:00,70.9,70.9,29.98,NNE,27,0.0,0.0,100,0.00,,,0.00,VWS V13.01,2013-08-30 12:34:00,
2013-08-30 07:39:00,71.1,71.1,29.98,NNE,27,0.0,0.0,100,0.00,,,0.00,VWS V13.01,2013-08-30 12:39:00,
2013-08-30 07:44:00,71.3,71.3,29.98,NNE,27,0.0,0.0,100,0.00,,,0.00,VWS V13.01,2013-08-30 12:44:00,
2013-08-30 07:49:00,71.6,71.6,29.98,NNE,27,0.0,0.0,100,0.00,,,0.00,VWS V13.01,2013-08-30 12:49:00,
2013-08-30 07:54:00,71.8,71.8,29.98,NNE,27,0.0,0.0,100,0.00,,,0.00,VWS V13.01,2013-08-30 12:54:00,
2013-08-30 07:59:00,72.2,72.2,29.98,NNE,27,0.0,0.0,100,0.00,,,0.00,VWS V13.01,2013-08-30 12:59:00,
2013-08-30 08:04:00,72.5,72.6,29.98,NNE,27,0.0,0.0,100,0.00,,,0.00,VWS V13.01,2013-08-30 13:04:00,
2013-08-30 08:09:00,72.9,72.9,29.98,NNE,27,0.0,0.0,100,0.00,,,0.00,VWS V13.01,2013-08-30 13:09:00,
2013-08-30 08:14:00,73.6,73.6,29.98,NNE,27,0.0,0.0,100,0.00,,,0.00,VWS V13.01,2013-08-30 13:14:00,
2013-08-30 08:19:00,74.5,74.5,29.98,NNE,27,0.0,0.0,100,0.00,,,0.00,VWS V13.01,2013-08-30 13:19:00,
2013-08-30 08:24:00,75.1,75.1,29.98,NNE,27,0.0,0.0,100,0.00,,,0.00,VWS V13.01,2013-08-30 13:24:00,
2013-08-30 08:29:00,75.6,75.6,29.98,NNE,27,0.0,0.0,100,0.00,,,0.00,VWS V13.01,2013-08-30 13:29:00,
2013-08-30 08:34:00,76.1,76.2,29.98,NNE,27,0.0,0.0,100,0.00,,,0.00,VWS V13.01,2013-08-30 13:34:00,
2013-08-30 08:39:00,76.5,76.2,29.98,NNE,27,0.0,0.0,99,0.00,,,0.00,VWS V13.01,2013-08-30 13:39:00,
2013-08-30 08:44:00,76.7,75.5,29.98,NNE,27,0.0,0.0,96,0.00,,,0.00,VWS V13.01,2013-08-30 13:44:00,
2013-08-30 08:49:00,77.2,75.7,29.98,NNE,27,0.0,0.0,95,0.00,,,0.00,VWS V13.01,2013-08-30 13:49:00,
2013-08-30 08:54:00,77.4,73.6,29.98,NNE,27,0.0,0.0,88,0.00,,,0.00,VWS V13.01,2013-08-30 13:54:00,
2013-08-30 08:59:00,77.9,72.7,29.98,NNE,27,0.0,0.0,84,0.00,,,0.00,VWS V13.01,2013-08-30 13:59:00,
2013-08-30 09:04:00,78.8,72.2,29.98,NNE,26,0.0,0.0,80,0.00,,,0.00,VWS V13.01,2013-08-30 14:04:00,
2013-08-30 09:09:00,79.0,70.0,29.98,West,274,0.0,0.0,74,0.00,,,0.00,VWS V13.01,2013-08-30 14:09:00,
2013-08-30 09:14:00,79.4,70.4,29.98,West,274,0.0,0.0,74,0.00,,,0.00,VWS V13.01,2013-08-30 14:14:00,
2013-08-30 09:19:00,79.6,70.6,29.98,WSW,252,0.0,0.0,74,0.00,,,0.00,VWS V13.01,2013-08-30 14:19:00,
2013-08-30 09:24:00,79.9,70.5,29.98,WSW,251,0.0,0.0,73,0.00,,,0.00,VWS V13.01,2013-08-30 14:24:00,
2013-08-30 09:29:00,80.5,70.6,29.98,WSW,251,0.0,0.0,72,0.00,,,0.00,VWS V13.01,2013-08-30 14:29:00,
2013-08-30 09:34:00,81.4,71.1,29.98,WSW,251,0.0,0.0,71,0.00,,,0.00,VWS V13.01,2013-08-30 14:34:00,
2013-08-30 09:39:00,81.9,70.3,29.98,SSE,151,3.6,3.6,68,0.00,,,0.00,VWS V13.01,2013-08-30 14:39:00,
2013-08-30 09:44:00,82.1,70.5,29.98,SSE,152,0.0,2.7,68,0.00,,,0.00,VWS V13.01,2013-08-30 14:44:00,
2013-08-30 09:49:00,82.6,71.0,29.98,SSE,159,0.0,2.2,68,0.00,,,0.00,VWS V13.01,2013-08-30 14:49:00,
2013-08-30 09:54:00,83.2,71.5,29.98,WSW,254,0.0,0.0,68,0.00,,,0.00,VWS V13.01,2013-08-30 14:54:00,
2013-08-30 09:59:00,83.7,71.6,29.98,South,181,3.1,3.6,67,0.00,,,0.00,VWS V13.01,2013-08-30 14:59:00,
2013-08-30 10:04:00,84.1,71.9,29.98,ESE,121,0.0,0.0,67,0.00,,,0.00,VWS V13.01,2013-08-30 15:04:00,
2013-08-30 10:09:00,84.8,71.3,29.98,WSW,237,2.7,4.0,64,0.00,,,0.00,VWS V13.01,2013-08-30 15:09:00,
2013-08-30 10:14:00,85.0,71.0,29.98,SSE,159,0.0,0.0,63,0.00,,,0.00,VWS V13.01,2013-08-30 15:14:00,
2013-08-30 10:19:00,85.3,70.8,29.98,SSE,158,4.0,4.9,62,0.00,,,0.00,VWS V13.01,2013-08-30 15:19:00,
2013-08-30 10:24:00,85.5,70.0,29.98,SSW,206,5.8,5.8,60,0.00,,,0.00,VWS V13.01,2013-08-30 15:24:00,
2013-08-30 10:29:00,85.5,69.6,29.98,SSE,160,2.7,5.4,59,0.00,,,0.00,VWS V13.01,2013-08-30 15:29:00,
2013-08-30 10:34:00,85.9,70.4,29.98,SSE,167,3.6,5.4,60,0.00,,,0.00,VWS V13.01,2013-08-30 15:34:00,
2013-08-30 10:39:00,86.0,70.6,29.98,South,191,3.6,3.6,60,0.00,,,0.00,VWS V13.01,2013-08-30 15:39:00,
2013-08-30 10:44:00,86.2,70.7,29.98,WSW,249,4.9,4.9,60,0.00,,,0.00,VWS V13.01,2013-08-30 15:44:00,
2013-08-30 10:49:00,86.6,70.6,29.98,West,265,2.7,3.1,59,0.00,,,0.00,VWS V13.01,2013-08-30 15:49:00,
2013-08-30 10:54:00,86.6,71.1,29.98,WSW,250,2.2,2.2,60,0.00,,,0.00,VWS V13.01,2013-08-30 15:54:00,
2013-08-30 10:59:00,87.1,71.1,29.98,WSW,237,2.7,4.0,59,0.00,,,0.00,VWS V13.01,2013-08-30 15:59:00,
2013-08-30 11:04:00,87.7,71.1,29.98,SW,232,4.0,5.8,58,0.00,,,0.00,VWS V13.01,2013-08-30 16:04:00,
2013-08-30 11:09:00,87.8,70.7,29.98,WSW,237,5.8,6.3,57,0.00,,,0.00,VWS V13.01,2013-08-30 16:09:00,
2013-08-30 11:14:00,88.0,70.9,29.98,SW,228,5.8,5.8,57,0.00,,,0.00,VWS V13.01,2013-08-30 16:14:00,
2013-08-30 11:19:00,88.2,71.1,29.98,WSW,248,5.4,6.7,57,0.00,,,0.00,VWS V13.01,2013-08-30 16:19:00,
2013-08-30 11:24:00,88.4,71.2,29.98,SSE,151,3.6,4.9,57,0.00,,,0.00,VWS V13.01,2013-08-30 16:24:00,
2013-08-30 11:29:00,88.7,71.6,29.98,SW,214,3.6,4.0,57,0.00,,,0.00,VWS V13.01,2013-08-30 16:29:00,
2013-08-30 11:34:00,89.1,71.4,29.98,SW,226,2.7,4.0,56,0.00,,,0.00,VWS V13.01,2013-08-30 16:34:00,
2013-08-30 11:39:00,89.3,72.1,29.98,SSW,213,3.6,4.0,57,0.00,,,0.00,VWS V13.01,2013-08-30 16:39:00,
2013-08-30 11:43:00,89.5,72.2,29.98,SW,233,4.0,4.0,57,0.00,,,0.00,VWS V13.01,2013-08-30 16:43:00,
2013-08-30 11:48:00,89.6,71.9,29.98,SW,233,2.7,4.0,56,0.00,,,0.00,VWS V13.01,2013-08-30 16:48:00,
2013-08-30 11:53:00,90.0,72.2,29.98,West,266,5.8,5.8,56,0.00,,,0.00,VWS V13.01,2013-08-30 16:53:00,
2013-08-30 11:58:00,90.2,72.4,29.95,WSW,245,4.0,4.9,56,0.00,,,0.00,VWS V13.01,2013-08-30 16:58:00,
2013-08-30 12:03:00,90.4,72.5,29.95,SW,225,4.0,4.0,56,0.00,,,0.00,VWS V13.01,2013-08-30 17:03:00,
2013-08-30 12:08:00,90.7,72.3,29.95,SW,229,5.4,5.4,55,0.00,,,0.00,VWS V13.01,2013-08-30 17:08:00,
2013-08-30 12:13:00,90.7,72.9,29.95,SW,235,4.0,4.0,56,0.00,,,0.00,VWS V13.01,2013-08-30 17:13:00,
2013-08-30 12:18:00,90.9,72.5,29.95,West,264,0.0,0.0,55,0.00,,,0.00,VWS V13.01,2013-08-30 17:18:00,
2013-08-30 12:23:00,91.3,72.8,29.95,WSW,243,2.2,2.2,55,0.00,,,0.00,VWS V13.01,2013-08-30 17:23:00,
2013-08-30 12:28:00,91.6,73.2,29.95,South,188,4.0,5.4,55,0.00,,,0.00,VWS V13.01,2013-08-30 17:28:00,
2013-08-30 12:33:00,91.6,72.6,29.95,WSW,249,5.4,5.4,54,0.00,,,0.00,VWS V13.01,2013-08-30 17:33:00,
2013-08-30 12:38:00,91.6,73.2,29.95,SSE,150,2.7,3.6,55,0.00,,,0.00,VWS V13.01,2013-08-30 17:38:00,
2013-08-30 12:43:00,92.2,73.7,29.95,SE,133,3.6,3.6,55,0.00,,,0.00,VWS V13.01,2013-08-30 17:43:00,
2013-08-30 12:48:00,92.5,73.5,29.95,SSE,162,5.4,5.8,54,0.00,,,0.00,VWS V13.01,2013-08-30 17:48:00,
2013-08-30 12:53:00,92.3,73.3,29.95,South,171,4.0,4.9,54,0.00,,,0.00,VWS V13.01,2013-08-30 17:53:00,
2013-08-30 12:58:00,92.7,73.1,29.95,South,177,3.1,3.1,53,0.00,,,0.00,VWS V13.01,2013-08-30 17:58:00,
2013-08-30 13:03:00,93.1,72.8,29.95,SSE,147,3.1,3.1,52,0.00,,,0.00,VWS V13.01,2013-08-30 18:03:00,
2013-08-30 13:08:00,93.2,72.4,29.95,SSE,160,2.7,2.7,51,0.00,,,0.00,VWS V13.01,2013-08-30 18:08:00,
2013-08-30 13:13:00,93.4,73.7,29.95,WSW,247,2.2,4.0,53,0.00,,,0.00,VWS V13.01,2013-08-30 18:13:00,
2013-08-30 13:18:00,93.8,74.1,29.95,WSW,249,6.3,6.3,53,0.00,,,0.00,VWS V13.01,2013-08-30 18:18:00,
2013-08-30 13:23:00,93.6,72.2,29.95,SW,236,4.0,4.0,50,0.00,,,0.00,VWS V13.01,2013-08-30 18:23:00,
2013-08-30 13:28:00,93.4,72.6,29.95,SSW,198,3.6,4.9,51,0.00,,,0.00,VWS V13.01,2013-08-30 18:28:00,
2013-08-30 13:33:00,93.4,72.0,29.95,WSW,258,5.4,5.4,50,0.00,,,0.00,VWS V13.01,2013-08-30 18:33:00,
2013-08-30 13:38:00,93.4,72.0,29.95,WSW,242,9.2,9.2,50,0.00,,,0.00,VWS V13.01,2013-08-30 18:38:00,
2013-08-30 13:43:00,93.4,71.4,29.95,SSW,212,3.1,4.0,49,0.00,,,0.00,VWS V13.01,2013-08-30 18:43:00,
2013-08-30 13:48:00,93.6,72.8,29.95,SSW,198,4.0,4.0,51,0.00,,,0.00,VWS V13.01,2013-08-30 18:48:00,
2013-08-30 13:53:00,93.6,71.0,29.95,WSW,245,3.1,3.6,48,0.00,,,0.00,VWS V13.01,2013-08-30 18:53:00,
2013-08-30 13:58:00,93.8,71.7,29.95,SW,232,5.4,7.6,49,0.00,,,0.00,VWS V13.01,2013-08-30 18:58:00,
2013-08-30 14:03:00,94.0,71.9,29.92,SSW,211,4.0,5.8,49,0.00,,,0.00,VWS V13.01,2013-08-30 19:03:00,
2013-08-30 14:08:00,94.0,71.9,29.92,SSE,158,5.8,5.8,49,0.00,,,0.00,VWS V13.01,2013-08-30 19:08:00,
2013-08-30 14:13:00,94.3,72.2,29.92,SSE,150,6.3,6.3,49,0.00,,,0.00,VWS V13.01,2013-08-30 19:13:00,
2013-08-30 14:18:00,94.0,71.9,29.92,WSW,244,5.4,5.4,49,0.00,,,0.00,VWS V13.01,2013-08-30 19:18:00,
2013-08-30 14:23:00,94.0,71.9,29.92,SSW,204,4.0,4.0,49,0.00,,,0.00,VWS V13.01,2013-08-30 19:23:00,
2013-08-30 14:28:00,94.7,71.9,29.92,SSW,197,4.0,4.0,48,0.00,,,0.00,VWS V13.01,2013-08-30 19:28:00,
2013-08-30 14:33:00,94.9,70.9,29.92,NW,305,3.1,4.9,46,0.00,,,0.00,VWS V13.01,2013-08-30 19:33:00,
2013-08-30 14:38:00,95.2,74.2,29.92,SW,231,3.1,4.9,51,0.00,,,0.00,VWS V13.01,2013-08-30 19:38:00,
2013-08-30 14:43:00,94.9,71.5,29.92,SW,227,3.6,6.3,47,0.00,,,0.00,VWS V13.01,2013-08-30 19:43:00,
2013-08-30 14:48:00,94.7,71.3,29.92,WSW,252,5.8,7.6,47,0.00,,,0.00,VWS V13.01,2013-08-30 19:48:00,
2013-08-30 14:53:00,94.5,71.2,29.92,West,271,7.6,7.6,47,0.00,,,0.00,VWS V13.01,2013-08-30 19:53:00,
2013-08-30 14:58:00,94.9,72.1,29.92,SSE,164,5.4,5.8,48,0.00,,,0.00,VWS V13.01,2013-08-30 19:58:00,
2013-08-30 15:03:00,94.9,72.1,29.92,WSW,254,3.6,4.0,48,0.00,,,0.00,VWS V13.01,2013-08-30 20:03:00,
2013-08-30 15:08:00,94.9,72.1,29.92,West,268,4.5,4.5,48,0.00,,,0.00,VWS V13.01,2013-08-30 20:08:00,
2013-08-30 15:13:00,95.4,72.0,29.92,SSE,159,3.6,3.6,47,0.00,,,0.00,VWS V13.01,2013-08-30 20:13:00,
2013-08-30 15:18:00,95.9,72.5,29.89,SSW,208,4.0,4.0,47,0.00,,,0.00,VWS V13.01,2013-08-30 20:18:00,
2013-08-30 15:23:00,95.8,72.3,29.89,SW,234,7.6,7.6,47,0.00,,,0.00,VWS V13.01,2013-08-30 20:23:00,
2013-08-30 15:28:00,95.6,71.5,29.89,WSW,247,3.6,5.4,46,0.00,,,0.00,VWS V13.01,2013-08-30 20:28:00,
2013-08-30 15:33:00,95.4,72.0,29.89,South,191,2.2,3.6,47,0.00,,,0.00,VWS V13.01,2013-08-30 20:33:00,
2013-08-30 15:38:00,95.8,72.9,29.89,WSW,240,5.8,5.8,48,0.00,,,0.00,VWS V13.01,2013-08-30 20:38:00,
2013-08-30 15:43:00,95.8,72.3,29.89,SSW,194,4.9,5.4,47,0.00,,,0.00,VWS V13.01,2013-08-30 20:43:00,
2013-08-30 15:48:00,95.8,72.3,29.89,West,268,5.8,5.8,47,0.00,,,0.00,VWS V13.01,2013-08-30 20:48:00,
2013-08-30 15:53:00,95.9,71.2,29.89,WSW,256,4.9,4.9,45,0.00,,,0.00,VWS V13.01,2013-08-30 20:53:00,
2013-08-30 15:58:00,95.9,71.8,29.89,West,269,3.1,3.6,46,0.00,,,0.00,VWS V13.01,2013-08-30 20:58:00,
2013-08-30 16:03:00,96.1,71.4,29.89,WSW,254,4.0,6.3,45,0.00,,,0.00,VWS V13.01,2013-08-30 21:03:00,
2013-08-30 16:08:00,96.3,72.2,29.89,WSW,247,4.9,5.8,46,0.00,,,0.00,VWS V13.01,2013-08-30 21:08:00,
2013-08-30 16:13:00,96.5,71.7,29.89,SW,223,2.7,4.0,45,0.00,,,0.00,VWS V13.01,2013-08-30 21:13:00,
2013-08-30 16:18:00,96.5,72.3,29.89,WSW,237,8.1,8.1,46,0.00,,,0.00,VWS V13.01,2013-08-30 21:18:00,
2013-08-30 16:23:00,95.9,72.5,29.89,SSW,208,2.7,4.0,47,0.00,,,0.00,VWS V13.01,2013-08-30 21:23:00,
2013-08-30 16:28:00,96.1,72.0,29.89,South,188,2.7,5.4,46,0.00,,,0.00,VWS V13.01,2013-08-30 21:28:00,
2013-08-30 16:33:00,96.5,72.3,29.89,SW,236,2.7,3.6,46,0.00,,,0.00,VWS V13.01,2013-08-30 21:33:00,
2013-08-30 16:38:00,96.7,72.5,29.89,SW,234,3.6,5.8,46,0.00,,,0.00,VWS V13.01,2013-08-30 21:38:00,
2013-08-30 16:43:00,96.3,71.5,29.89,SSW,206,2.2,3.6,45,0.00,,,0.00,VWS V13.01,2013-08-30 21:43:00,
2013-08-30 16:48:00,96.5,72.3,29.89,SSE,154,3.1,3.6,46,0.00,,,0.00,VWS V13.01,2013-08-30 21:48:00,
2013-08-30 16:53:00,96.7,71.8,29.89,WNW,303,4.0,5.4,45,0.00,,,0.00,VWS V13.01,2013-08-30 21:53:00,
2013-08-30 16:58:00,96.5,72.3,29.89,West,260,3.1,5.4,46,0.00,,,0.00,VWS V13.01,2013-08-30 21:58:00,
2013-08-30 17:03:00,96.3,72.2,29.86,WSW,257,5.4,5.4,46,0.00,,,0.00,VWS V13.01,2013-08-30 22:03:00,
2013-08-30 17:08:00,95.8,71.7,29.86,West,263,4.0,5.8,46,0.00,,,0.00,VWS V13.01,2013-08-30 22:08:00,
2013-08-30 17:13:00,95.6,71.5,29.86,SW,236,4.0,5.4,46,0.00,,,0.00,VWS V13.01,2013-08-30 22:13:00,
2013-08-30 17:18:00,95.6,71.5,29.89,WSW,240,4.0,5.8,46,0.00,,,0.00,VWS V13.01,2013-08-30 22:18:00,
2013-08-30 17:22:00,95.6,71.5,29.89,WSW,252,3.1,3.6,46,0.00,,,0.00,VWS V13.01,2013-08-30 22:22:00,
2013-08-30 17:27:00,95.8,71.7,29.89,SSW,213,2.7,3.6,46,0.00,,,0.00,VWS V13.01,2013-08-30 22:27:00,
2013-08-30 17:32:00,95.8,71.7,29.86,WSW,239,2.2,2.7,46,0.00,,,0.00,VWS V13.01,2013-08-30 22:32:00,
2013-08-30 17:37:00,95.8,72.3,29.86,WSW,247,4.9,4.9,47,0.00,,,0.00,VWS V13.01,2013-08-30 22:37:00,
2013-08-30 17:42:00,95.6,71.5,29.86,West,263,4.9,6.3,46,0.00,,,0.00,VWS V13.01,2013-08-30 22:42:00,
2013-08-30 17:47:00,95.6,71.5,29.86,WSW,242,2.2,4.0,46,0.00,,,0.00,VWS V13.01,2013-08-30 22:47:00,
2013-08-30 17:52:00,95.8,71.7,29.86,West,260,6.3,6.3,46,0.00,,,0.00,VWS V13.01,2013-08-30 22:52:00,
2013-08-30 17:57:00,95.4,71.3,29.86,WSW,253,4.9,4.9,46,0.00,,,0.00,VWS V13.01,2013-08-30 22:57:00,
2013-08-30 18:02:00,95.0,71.0,29.86,WSW,247,4.9,4.9,46,0.00,,,0.00,VWS V13.01,2013-08-30 23:02:00,
2013-08-30 18:07:00,95.0,71.0,29.86,WSW,242,4.0,4.0,46,0.00,,,0.00,VWS V13.01,2013-08-30 23:07:00,
2013-08-30 18:12:00,94.9,70.9,29.86,SW,223,2.2,3.6,46,0.00,,,0.00,VWS V13.01,2013-08-30 23:12:00,
2013-08-30 18:17:00,94.9,70.9,29.86,WSW,242,4.0,4.0,46,0.00,,,0.00,VWS V13.01,2013-08-30 23:17:00,
2013-08-30 18:22:00,94.7,70.7,29.86,SW,232,3.6,3.6,46,0.00,,,0.00,VWS V13.01,2013-08-30 23:22:00,
2013-08-30 18:27:00,94.3,70.4,29.86,SW,236,5.4,5.4,46,0.00,,,0.00,VWS V13.01,2013-08-30 23:27:00,
2013-08-30 18:32:00,94.1,70.8,29.86,WSW,241,3.1,3.1,47,0.00,,,0.00,VWS V13.01,2013-08-30 23:32:00,
2013-08-30 18:37:00,94.1,70.8,29.86,WSW,239,0.0,2.2,47,0.00,,,0.00,VWS V13.01,2013-08-30 23:37:00,
2013-08-30 18:42:00,94.0,71.3,29.86,WSW,239,0.0,0.0,48,0.00,,,0.00,VWS V13.01,2013-08-30 23:42:00,
2013-08-30 18:47:00,94.3,72.2,29.86,WSW,239,0.0,0.0,49,0.00,,,0.00,VWS V13.01,2013-08-30 23:47:00,
2013-08-30 18:52:00,94.5,71.8,29.86,WSW,239,0.0,0.0,48,0.00,,,0.00,VWS V13.01,2013-08-30 23:52:00,
2013-08-30 18:57:00,94.3,72.2,29.86,WSW,239,0.0,0.0,49,0.00,,,0.00,VWS V13.01,2013-08-30 23:57:00,
2013-08-30 19:02:00,94.0,71.9,29.86,WSW,239,0.0,0.0,49,0.00,,,0.00,VWS V13.01,2013-08-31 00:02:00,
2013-08-30 19:07:00,93.1,71.7,29.86,WSW,239,0.0,0.0,50,0.00,,,0.00,VWS V13.01,2013-08-31 00:07:00,
2013-08-30 19:12:00,92.0,71.8,29.86,WSW,239,0.0,0.0,52,0.00,,,0.00,VWS V13.01,2013-08-31 00:12:00,
2013-08-30 19:17:00,91.3,72.3,29.86,WSW,239,0.0,0.0,54,0.00,,,0.00,VWS V13.01,2013-08-31 00:17:00,
2013-08-30 19:22:00,90.7,72.9,29.86,WSW,239,0.0,0.0,56,0.00,,,0.00,VWS V13.01,2013-08-31 00:22:00,
2013-08-30 19:27:00,90.2,72.4,29.86,WSW,239,0.0,0.0,56,0.00,,,0.00,VWS V13.01,2013-08-31 00:27:00,
2013-08-30 19:32:00,90.0,72.2,29.86,WSW,239,0.0,0.0,56,0.00,,,0.00,VWS V13.01,2013-08-31 00:32:00,
2013-08-30 19:37:00,89.3,72.1,29.86,WSW,239,0.0,0.0,57,0.00,,,0.00,VWS V13.01,2013-08-31 00:37:00,
2013-08-30 19:42:00,88.4,71.7,29.86,WSW,239,0.0,0.0,58,0.00,,,0.00,VWS V13.01,2013-08-31 00:42:00,
2013-08-30 19:47:00,87.8,72.2,29.86,WSW,239,0.0,0.0,60,0.00,,,0.00,VWS V13.01,2013-08-31 00:47:00,
2013-08-30 19:52:00,87.3,71.7,29.86,WSW,239,0.0,0.0,60,0.00,,,0.00,VWS V13.01,2013-08-31 00:52:00,
2013-08-30 19:57:00,86.8,71.7,29.86,NW,325,0.0,0.0,61,0.00,,,0.00,VWS V13.01,2013-08-31 00:57:00,
2013-08-30 20:02:00,86.4,72.3,29.86,North,8,0.0,2.7,63,0.00,,,0.00,VWS V13.01,2013-08-31 01:02:00,
2013-08-30 20:07:00,86.0,72.0,29.86,North,8,0.0,0.0,63,0.00,,,0.00,VWS V13.01,2013-08-31 01:07:00,
2013-08-30 20:12:00,85.5,71.9,29.86,North,8,0.0,0.0,64,0.00,,,0.00,VWS V13.01,2013-08-31 01:12:00,
2013-08-30 20:17:00,85.0,71.9,29.86,North,8,0.0,0.0,65,0.00,,,0.00,VWS V13.01,2013-08-31 01:17:00,
2013-08-30 20:22:00,84.1,71.9,29.86,North,8,0.0,0.0,67,0.00,,,0.00,VWS V13.01,2013-08-31 01:22:00,
2013-08-30 20:27:00,83.5,72.3,29.86,North,8,0.0,0.0,69,0.00,,,0.00,VWS V13.01,2013-08-31 01:27:00,
2013-08-30 20:32:00,83.3,73.0,29.86,North,8,0.0,0.0,71,0.00,,,0.00,VWS V13.01,2013-08-31 01:32:00,
2013-08-30 20:37:00,83.0,72.6,29.86,North,8,0.0,0.0,71,0.00,,,0.00,VWS V13.01,2013-08-31 01:37:00,
2013-08-30 20:42:00,83.0,72.6,29.86,North,8,0.0,0.0,71,0.00,,,0.00,VWS V13.01,2013-08-31 01:42:00,
2013-08-30 20:47:00,82.8,72.4,29.86,North,8,0.0,0.0,71,0.00,,,0.00,VWS V13.01,2013-08-31 01:47:00,
2013-08-30 20:52:00,82.6,73.1,29.86,North,8,0.0,0.0,73,0.00,,,0.00,VWS V13.01,2013-08-31 01:52:00,
2013-08-30 20:57:00,82.3,72.8,29.86,North,8,0.0,0.0,73,0.00,,,0.00,VWS V13.01,2013-08-31 01:57:00,
2013-08-30 21:02:00,81.9,72.4,29.86,North,8,0.0,0.0,73,0.00,,,0.00,VWS V13.01,2013-08-31 02:02:00,
2013-08-30 21:07:00,81.7,72.6,29.86,North,8,0.0,0.0,74,0.00,,,0.00,VWS V13.01,2013-08-31 02:07:00,
2013-08-30 21:12:00,81.5,72.5,29.86,North,8,0.0,0.0,74,0.00,,,0.00,VWS V13.01,2013-08-31 02:12:00,
2013-08-30 21:17:00,81.5,72.5,29.86,North,8,0.0,0.0,74,0.00,,,0.00,VWS V13.01,2013-08-31 02:17:00,
2013-08-30 21:22:00,81.4,72.3,29.86,North,8,0.0,0.0,74,0.00,,,0.00,VWS V13.01,2013-08-31 02:22:00,
2013-08-30 21:27:00,81.0,71.9,29.86,North,8,0.0,0.0,74,0.00,,,0.00,VWS V13.01,2013-08-31 02:27:00,
2013-08-30 21:32:00,80.5,71.8,29.86,North,8,0.0,0.0,75,0.00,,,0.00,VWS V13.01,2013-08-31 02:32:00,
2013-08-30 21:37:00,80.1,71.9,29.86,North,8,0.0,0.0,76,0.00,,,0.00,VWS V13.01,2013-08-31 02:37:00,
2013-08-30 21:42:00,79.7,73.0,29.86,North,8,0.0,0.0,80,0.00,,,0.00,VWS V13.01,2013-08-31 02:42:00,
2013-08-30 21:47:00,79.4,73.4,29.86,North,8,0.0,0.0,82,0.00,,,0.00,VWS V13.01,2013-08-31 02:47:00,
2013-08-30 21:52:00,79.2,72.9,29.86,North,8,0.0,0.0,81,0.00,,,0.00,VWS V13.01,2013-08-31 02:52:00,
2013-08-30 21:57:00,79.0,72.7,29.86,North,8,0.0,0.0,81,0.00,,,0.00,VWS V13.01,2013-08-31 02:57:00,
2013-08-30 22:02:00,79.0,73.1,29.86,North,8,0.0,0.0,82,0.00,,,0.00,VWS V13.01,2013-08-31 03:02:00,
2013-08-30 22:07:00,78.8,72.9,29.86,North,8,0.0,0.0,82,0.00,,,0.00,VWS V13.01,2013-08-31 03:07:00,
2013-08-30 22:12:00,78.8,72.9,29.86,North,8,0.0,0.0,82,0.00,,,0.00,VWS V13.01,2013-08-31 03:12:00,
2013-08-30 22:17:00,78.5,72.2,29.83,North,8,0.0,0.0,81,0.00,,,0.00,VWS V13.01,2013-08-31 03:17:00,
2013-08-30 22:22:00,78.3,72.4,29.83,North,8,0.0,0.0,82,0.00,,,0.00,VWS V13.01,2013-08-31 03:22:00,
2013-08-30 22:27:00,78.1,72.9,29.83,North,8,0.0,0.0,84,0.00,,,0.00,VWS V13.01,2013-08-31 03:27:00,
2013-08-30 22:32:00,77.8,72.9,29.86,North,8,0.0,0.0,85,0.00,,,0.00,VWS V13.01,2013-08-31 03:32:00,
2013-08-30 22:37:00,77.6,73.4,29.86,North,8,0.0,0.0,87,0.00,,,0.00,VWS V13.01,2013-08-31 03:37:00,
2013-08-30 22:42:00,77.4,73.9,29.86,North,8,0.0,0.0,89,0.00,,,0.00,VWS V13.01,2013-08-31 03:42:00,
2013-08-30 22:47:00,77.0,73.6,29.86,North,8,0.0,0.0,89,0.00,,,0.00,VWS V13.01,2013-08-31 03:47:00,
2013-08-30 22:52:00,76.9,73.4,29.86,North,8,0.0,0.0,89,0.00,,,0.00,VWS V13.01,2013-08-31 03:52:00,
2013-08-30 22:57:00,76.7,73.2,29.86,North,8,0.0,0.0,89,0.00,,,0.00,VWS V13.01,2013-08-31 03:57:00,
2013-08-30 23:01:00,76.7,73.2,29.86,North,8,0.0,0.0,89,0.00,,,0.00,VWS V13.01,2013-08-31 04:01:00,
2013-08-30 23:06:00,76.7,73.9,29.86,North,8,0.0,0.0,91,0.00,,,0.00,VWS V13.01,2013-08-31 04:06:00,
2013-08-30 23:11:00,76.5,73.7,29.86,North,8,0.0,0.0,91,0.00,,,0.00,VWS V13.01,2013-08-31 04:11:00,
2013-08-30 23:16:00,76.7,73.5,29.86,North,8,0.0,0.0,90,0.00,,,0.00,VWS V13.01,2013-08-31 04:16:00,
2013-08-30 23:21:00,76.5,73.0,29.86,North,8,0.0,0.0,89,0.00,,,0.00,VWS V13.01,2013-08-31 04:21:00,
2013-08-30 23:26:00,76.3,73.2,29.86,North,8,0.0,0.0,90,0.00,,,0.00,VWS V13.01,2013-08-31 04:26:00,
2013-08-30 23:31:00,76.1,73.3,29.86,NNE,25,0.0,0.0,91,0.00,,,0.00,VWS V13.01,2013-08-31 04:31:00,
2013-08-30 23:36:00,76.0,73.2,29.86,NNE,31,2.2,2.2,91,0.00,,,0.00,VWS V13.01,2013-08-31 04:36:00,
2013-08-30 23:41:00,75.8,73.0,29.86,NE,36,0.0,0.0,91,0.00,,,0.00,VWS V13.01,2013-08-31 04:41:00,
2013-08-30 23:46:00,76.0,73.2,29.86,NE,36,0.0,0.0,91,0.00,,,0.00,VWS V13.01,2013-08-31 04:46:00,
2013-08-30 23:51:00,75.8,72.6,29.86,NE,36,0.0,0.0,90,0.00,,,0.00,VWS V13.01,2013-08-31 04:51:00,
2013-08-30 23:56:00,75.8,72.6,29.86,NE,36,0.0,0.0,90,0.00,,,0.00,VWS V13.01,2013-08-31 04:56:00,